sensor_id;sensor_type;location;lat;lon;timestamp;temperature;humidity
26254;DHT22;53339;51.378;0.094;2022-12-18T00:01:25;0.10;91.00
26254;DHT22;53339;51.378;0.094;2022-12-18T00:03:54;0.00;90.90
26254;DHT22;53339;51.378;0.094;2022-12-18T00:06:25;0.10;91.00
26254;DHT22;53339;51.378;0.094;2022-12-18T00:08:52;0.00;91.00
26254;DHT22;53339;51.378;0.094;2022-12-18T00:11:22;0.00;90.70
26254;DHT22;53339;51.378;0.094;2022-12-18T00:13:51;0.00;90.70
26254;DHT22;53339;51.378;0.094;2022-12-18T00:16:21;0.00;90.80
26254;DHT22;53339;51.378;0.094;2022-12-18T00:18:51;0.00;90.90
26254;DHT22;53339;51.378;0.094;2022-12-18T00:21:19;0.00;90.80
26254;DHT22;53339;51.378;0.094;2022-12-18T00:23:48;0.00;90.90
26254;DHT22;53339;51.378;0.094;2022-12-18T00:28:46;0.00;90.90
26254;DHT22;53339;51.378;0.094;2022-12-18T00:31:17;-0.20;90.50
26254;DHT22;53339;51.378;0.094;2022-12-18T00:33:45;-0.30;90.40
26254;DHT22;53339;51.378;0.094;2022-12-18T00:36:19;-0.20;90.60
26254;DHT22;53339;51.378;0.094;2022-12-18T00:38:47;-0.30;90.70
26254;DHT22;53339;51.378;0.094;2022-12-18T00:41:18;-0.40;90.50
26254;DHT22;53339;51.378;0.094;2022-12-18T00:44:07;-0.40;90.40
26254;DHT22;53339;51.378;0.094;2022-12-18T00:46:35;-0.40;90.80
26254;DHT22;53339;51.378;0.094;2022-12-18T00:49:02;-0.40;90.70
26254;DHT22;53339;51.378;0.094;2022-12-18T00:51:30;-0.50;90.50
26254;DHT22;53339;51.378;0.094;2022-12-18T00:53:58;-0.60;90.50
26254;DHT22;53339;51.378;0.094;2022-12-18T00:56:25;-0.50;90.70
26254;DHT22;53339;51.378;0.094;2022-12-18T00:58:53;-0.50;90.80
26254;DHT22;53339;51.378;0.094;2022-12-18T01:01:20;-0.60;90.50
26254;DHT22;53339;51.378;0.094;2022-12-18T01:03:48;-0.60;90.40
26254;DHT22;53339;51.378;0.094;2022-12-18T01:06:16;-0.60;90.60
26254;DHT22;53339;51.378;0.094;2022-12-18T01:08:44;-0.50;90.80
26254;DHT22;53339;51.378;0.094;2022-12-18T01:11:18;-0.50;90.80
26254;DHT22;53339;51.378;0.094;2022-12-18T01:13:46;-0.50;90.80
26254;DHT22;53339;51.378;0.094;2022-12-18T01:16:15;-0.50;90.90
26254;DHT22;53339;51.378;0.094;2022-12-18T01:18:43;-0.40;91.00
26254;DHT22;53339;51.378;0.094;2022-12-18T01:21:14;-0.40;90.90
26254;DHT22;53339;51.378;0.094;2022-12-18T01:23:42;-0.50;90.80
26254;DHT22;53339;51.378;0.094;2022-12-18T01:26:15;-0.40;90.90
26254;DHT22;53339;51.378;0.094;2022-12-18T01:28:44;-0.40;91.00
26254;DHT22;53339;51.378;0.094;2022-12-18T01:31:46;-0.40;90.90
26254;DHT22;53339;51.378;0.094;2022-12-18T01:34:06;-0.50;90.80
26254;DHT22;53339;51.378;0.094;2022-12-18T01:36:37;-0.50;90.90
26254;DHT22;53339;51.378;0.094;2022-12-18T01:39:11;-0.50;90.90
26254;DHT22;53339;51.378;0.094;2022-12-18T01:41:42;-0.60;90.70
26254;DHT22;53339;51.378;0.094;2022-12-18T01:44:57;-0.70;90.60
26254;DHT22;53339;51.378;0.094;2022-12-18T01:50:25;-0.70;90.80
26254;DHT22;53339;51.378;0.094;2022-12-18T01:52:58;-0.80;90.50
26254;DHT22;53339;51.378;0.094;2022-12-18T01:55:29;-0.80;90.70
26254;DHT22;53339;51.378;0.094;2022-12-18T01:57:59;-0.80;90.80
26254;DHT22;53339;51.378;0.094;2022-12-18T02:00:28;-0.80;90.90
26254;DHT22;53339;51.378;0.094;2022-12-18T02:02:56;-0.80;90.80
26254;DHT22;53339;51.378;0.094;2022-12-18T02:05:44;-0.80;90.80
26254;DHT22;53339;51.378;0.094;2022-12-18T02:08:30;-0.80;91.00
26254;DHT22;53339;51.378;0.094;2022-12-18T02:11:07;-0.70;90.90
26254;DHT22;53339;51.378;0.094;2022-12-18T02:13:53;-0.90;90.70
26254;DHT22;53339;51.378;0.094;2022-12-18T02:19:04;-0.80;90.90
26254;DHT22;53339;51.378;0.094;2022-12-18T02:21:54;-0.80;90.90
26254;DHT22;53339;51.378;0.094;2022-12-18T02:24:40;-0.70;91.10
26254;DHT22;53339;51.378;0.094;2022-12-18T02:27:10;-0.60;91.20
26254;DHT22;53339;51.378;0.094;2022-12-18T02:29:40;-0.60;91.10
26254;DHT22;53339;51.378;0.094;2022-12-18T02:32:16;-0.80;90.70
26254;DHT22;53339;51.378;0.094;2022-12-18T02:34:45;-0.90;90.50
26254;DHT22;53339;51.378;0.094;2022-12-18T02:37:18;-0.80;90.70
26254;DHT22;53339;51.378;0.094;2022-12-18T02:39:49;-0.90;90.70
26254;DHT22;53339;51.378;0.094;2022-12-18T02:42:18;-1.00;90.50
26254;DHT22;53339;51.378;0.094;2022-12-18T02:44:49;-1.10;90.50
26254;DHT22;53339;51.378;0.094;2022-12-18T02:47:24;-1.00;90.80
26254;DHT22;53339;51.378;0.094;2022-12-18T02:55:16;-1.10;90.70
26254;DHT22;53339;51.378;0.094;2022-12-18T02:57:55;-1.00;90.90
26254;DHT22;53339;51.378;0.094;2022-12-18T03:00:33;-1.00;90.90
26254;DHT22;53339;51.378;0.094;2022-12-18T03:03:11;-1.00;90.80
26254;DHT22;53339;51.378;0.094;2022-12-18T03:08:29;-1.00;90.90
26254;DHT22;53339;51.378;0.094;2022-12-18T03:11:02;-1.00;91.00
26254;DHT22;53339;51.378;0.094;2022-12-18T03:13:48;-1.00;90.80
26254;DHT22;53339;51.378;0.094;2022-12-18T03:16:28;-1.00;90.90
26254;DHT22;53339;51.378;0.094;2022-12-18T03:19:01;-0.90;91.00
26254;DHT22;53339;51.378;0.094;2022-12-18T03:21:50;-0.90;91.00
26254;DHT22;53339;51.378;0.094;2022-12-18T03:24:20;-0.90;90.90
26254;DHT22;53339;51.378;0.094;2022-12-18T03:26:53;-0.90;91.00
26254;DHT22;53339;51.378;0.094;2022-12-18T03:29:42;-0.80;91.00
26254;DHT22;53339;51.378;0.094;2022-12-18T03:32:30;-0.90;90.90
26254;DHT22;53339;51.378;0.094;2022-12-18T03:35:03;-0.90;90.90
26254;DHT22;53339;51.378;0.094;2022-12-18T03:37:36;-0.80;91.00
26254;DHT22;53339;51.378;0.094;2022-12-18T03:40:05;-0.70;91.10
26254;DHT22;53339;51.378;0.094;2022-12-18T03:48:12;-0.60;91.20
26254;DHT22;53339;51.378;0.094;2022-12-18T03:56:34;-0.80;90.90
26254;DHT22;53339;51.378;0.094;2022-12-18T03:59:06;-0.80;91.10
26254;DHT22;53339;51.378;0.094;2022-12-18T04:01:37;-0.80;91.00
26254;DHT22;53339;51.378;0.094;2022-12-18T04:04:08;-0.80;90.90
26254;DHT22;53339;51.378;0.094;2022-12-18T04:06:39;-0.80;91.10
26254;DHT22;53339;51.378;0.094;2022-12-18T04:09:10;-0.70;91.20
26254;DHT22;53339;51.378;0.094;2022-12-18T04:11:42;-0.70;91.10
26254;DHT22;53339;51.378;0.094;2022-12-18T04:14:13;-0.80;91.00
26254;DHT22;53339;51.378;0.094;2022-12-18T04:16:44;-0.70;91.10
26254;DHT22;53339;51.378;0.094;2022-12-18T04:19:15;-0.70;91.20
26254;DHT22;53339;51.378;0.094;2022-12-18T04:21:44;-0.60;91.20
26254;DHT22;53339;51.378;0.094;2022-12-18T04:24:13;-0.70;91.10
26254;DHT22;53339;51.378;0.094;2022-12-18T04:26:49;-0.60;91.20
26254;DHT22;53339;51.378;0.094;2022-12-18T04:29:22;-0.60;91.30
26254;DHT22;53339;51.378;0.094;2022-12-18T04:31:50;-0.60;91.20
26254;DHT22;53339;51.378;0.094;2022-12-18T04:34:19;-0.70;91.00
26254;DHT22;53339;51.378;0.094;2022-12-18T04:36:50;-0.70;91.10
26254;DHT22;53339;51.378;0.094;2022-12-18T04:39:18;-0.60;91.30
26254;DHT22;53339;51.378;0.094;2022-12-18T04:41:48;-0.50;91.30
26254;DHT22;53339;51.378;0.094;2022-12-18T04:44:16;-0.50;91.30
26254;DHT22;53339;51.378;0.094;2022-12-18T04:46:43;-0.30;91.50
26254;DHT22;53339;51.378;0.094;2022-12-18T04:49:11;-0.30;91.50
26254;DHT22;53339;51.378;0.094;2022-12-18T04:51:38;-0.20;91.50
26254;DHT22;53339;51.378;0.094;2022-12-18T04:54:06;-0.20;91.50
26254;DHT22;53339;51.378;0.094;2022-12-18T04:56:33;0.00;91.60
26254;DHT22;53339;51.378;0.094;2022-12-18T04:59:01;0.00;91.70
26254;DHT22;53339;51.378;0.094;2022-12-18T05:01:28;0.00;91.50
26254;DHT22;53339;51.378;0.094;2022-12-18T05:04:01;0.00;91.50
26254;DHT22;53339;51.378;0.094;2022-12-18T05:06:29;0.00;91.50
26254;DHT22;53339;51.378;0.094;2022-12-18T05:08:56;0.00;91.60
26254;DHT22;53339;51.378;0.094;2022-12-18T05:11:24;0.10;91.60
26254;DHT22;53339;51.378;0.094;2022-12-18T05:13:51;0.10;91.60
26254;DHT22;53339;51.378;0.094;2022-12-18T05:16:19;0.10;91.60
26254;DHT22;53339;51.378;0.094;2022-12-18T05:18:46;0.10;91.60
26254;DHT22;53339;51.378;0.094;2022-12-18T05:21:14;0.20;91.60
26254;DHT22;53339;51.378;0.094;2022-12-18T05:23:42;0.10;91.50
26254;DHT22;53339;51.378;0.094;2022-12-18T05:26:15;0.20;91.60
26254;DHT22;53339;51.378;0.094;2022-12-18T05:28:43;0.20;91.60
26254;DHT22;53339;51.378;0.094;2022-12-18T05:31:11;0.20;91.60
26254;DHT22;53339;51.378;0.094;2022-12-18T05:33:39;0.10;91.50
26254;DHT22;53339;51.378;0.094;2022-12-18T05:36:08;0.20;91.50
26254;DHT22;53339;51.378;0.094;2022-12-18T05:38:37;0.20;91.60
26254;DHT22;53339;51.378;0.094;2022-12-18T05:41:05;0.20;91.60
26254;DHT22;53339;51.378;0.094;2022-12-18T05:43:35;0.10;91.50
26254;DHT22;53339;51.378;0.094;2022-12-18T05:46:05;0.10;91.50
26254;DHT22;53339;51.378;0.094;2022-12-18T05:48:33;0.20;91.60
26254;DHT22;53339;51.378;0.094;2022-12-18T05:51:09;0.20;91.60
26254;DHT22;53339;51.378;0.094;2022-12-18T05:53:38;0.30;91.70
26254;DHT22;53339;51.378;0.094;2022-12-18T05:56:08;0.40;91.70
26254;DHT22;53339;51.378;0.094;2022-12-18T05:58:36;0.40;91.80
26254;DHT22;53339;51.378;0.094;2022-12-18T06:01:15;0.40;91.70
26254;DHT22;53339;51.378;0.094;2022-12-18T06:03:44;0.40;91.70
26254;DHT22;53339;51.378;0.094;2022-12-18T06:06:24;0.50;91.70
26254;DHT22;53339;51.378;0.094;2022-12-18T06:08:52;0.50;91.70
26254;DHT22;53339;51.378;0.094;2022-12-18T06:11:23;0.40;91.50
26254;DHT22;53339;51.378;0.094;2022-12-18T06:13:52;0.30;91.40
26254;DHT22;53339;51.378;0.094;2022-12-18T06:16:25;0.40;91.50
26254;DHT22;53339;51.378;0.094;2022-12-18T06:18:53;0.40;91.60
26254;DHT22;53339;51.378;0.094;2022-12-18T06:21:20;0.30;91.40
26254;DHT22;53339;51.378;0.094;2022-12-18T06:23:48;0.20;91.30
26254;DHT22;53339;51.378;0.094;2022-12-18T06:26:15;0.20;91.50
26254;DHT22;53339;51.378;0.094;2022-12-18T06:28:43;0.30;91.60
26254;DHT22;53339;51.378;0.094;2022-12-18T06:31:11;0.30;91.50
26254;DHT22;53339;51.378;0.094;2022-12-18T06:33:39;0.20;91.40
26254;DHT22;53339;51.378;0.094;2022-12-18T06:36:10;0.20;91.60
26254;DHT22;53339;51.378;0.094;2022-12-18T06:38:40;0.30;91.60
26254;DHT22;53339;51.378;0.094;2022-12-18T06:41:16;0.30;91.60
26254;DHT22;53339;51.378;0.094;2022-12-18T06:43:44;0.30;91.60
26254;DHT22;53339;51.378;0.094;2022-12-18T06:46:12;0.30;91.70
26254;DHT22;53339;51.378;0.094;2022-12-18T06:48:40;0.40;91.70
26254;DHT22;53339;51.378;0.094;2022-12-18T06:51:07;0.40;91.70
26254;DHT22;53339;51.378;0.094;2022-12-18T06:53:35;0.40;91.70
26254;DHT22;53339;51.378;0.094;2022-12-18T06:56:04;0.40;91.70
26254;DHT22;53339;51.378;0.094;2022-12-18T06:58:36;0.50;91.70
26254;DHT22;53339;51.378;0.094;2022-12-18T07:01:06;0.50;91.70
26254;DHT22;53339;51.378;0.094;2022-12-18T07:03:34;0.50;91.70
26254;DHT22;53339;51.378;0.094;2022-12-18T07:06:01;0.50;91.70
26254;DHT22;53339;51.378;0.094;2022-12-18T07:08:30;0.60;91.80
26254;DHT22;53339;51.378;0.094;2022-12-18T07:10:58;0.60;91.70
26254;DHT22;53339;51.378;0.094;2022-12-18T07:13:25;0.50;91.70
26254;DHT22;53339;51.378;0.094;2022-12-18T07:15:53;0.60;91.80
26254;DHT22;53339;51.378;0.094;2022-12-18T07:18:21;0.60;91.70
26254;DHT22;53339;51.378;0.094;2022-12-18T07:20:48;0.60;91.70
26254;DHT22;53339;51.378;0.094;2022-12-18T07:23:18;0.60;91.60
26254;DHT22;53339;51.378;0.094;2022-12-18T07:25:45;0.60;91.70
26254;DHT22;53339;51.378;0.094;2022-12-18T07:28:13;0.60;91.70
26254;DHT22;53339;51.378;0.094;2022-12-18T07:30:43;0.70;91.70
26254;DHT22;53339;51.378;0.094;2022-12-18T07:33:11;0.60;91.60
26254;DHT22;53339;51.378;0.094;2022-12-18T07:35:38;0.60;91.70
26254;DHT22;53339;51.378;0.094;2022-12-18T07:38:06;0.70;91.70
26254;DHT22;53339;51.378;0.094;2022-12-18T07:40:33;0.70;91.70
26254;DHT22;53339;51.378;0.094;2022-12-18T07:43:01;0.60;91.70
26254;DHT22;53339;51.378;0.094;2022-12-18T07:45:28;0.60;91.70
26254;DHT22;53339;51.378;0.094;2022-12-18T07:47:56;0.70;91.70
26254;DHT22;53339;51.378;0.094;2022-12-18T07:50:23;0.60;91.70
26254;DHT22;53339;51.378;0.094;2022-12-18T07:52:51;0.60;91.60
26254;DHT22;53339;51.378;0.094;2022-12-18T07:55:19;0.60;91.60
26254;DHT22;53339;51.378;0.094;2022-12-18T07:57:46;0.60;91.70
26254;DHT22;53339;51.378;0.094;2022-12-18T08:00:17;0.60;91.70
26254;DHT22;53339;51.378;0.094;2022-12-18T08:02:45;0.70;91.80
26254;DHT22;53339;51.378;0.094;2022-12-18T08:05:12;0.70;91.80
26254;DHT22;53339;51.378;0.094;2022-12-18T08:07:40;0.80;91.80
26254;DHT22;53339;51.378;0.094;2022-12-18T08:10:08;0.70;91.60
26254;DHT22;53339;51.378;0.094;2022-12-18T08:12:35;0.60;91.50
26254;DHT22;53339;51.378;0.094;2022-12-18T08:15:03;0.60;91.50
26254;DHT22;53339;51.378;0.094;2022-12-18T08:17:31;0.60;91.70
26254;DHT22;53339;51.378;0.094;2022-12-18T08:19:59;0.70;91.60
26254;DHT22;53339;51.378;0.094;2022-12-18T08:22:26;0.70;91.60
26254;DHT22;53339;51.378;0.094;2022-12-18T08:24:53;0.70;91.70
26254;DHT22;53339;51.378;0.094;2022-12-18T08:27:21;0.70;91.80
26254;DHT22;53339;51.378;0.094;2022-12-18T08:29:57;0.80;91.70
26254;DHT22;53339;51.378;0.094;2022-12-18T08:32:25;0.70;91.60
26254;DHT22;53339;51.378;0.094;2022-12-18T08:34:53;0.70;91.60
26254;DHT22;53339;51.378;0.094;2022-12-18T08:37:20;0.80;91.80
26254;DHT22;53339;51.378;0.094;2022-12-18T08:39:48;0.80;91.80
26254;DHT22;53339;51.378;0.094;2022-12-18T08:42:15;0.80;91.70
26254;DHT22;53339;51.378;0.094;2022-12-18T08:45:06;0.90;91.80
26254;DHT22;53339;51.378;0.094;2022-12-18T08:47:34;1.00;91.90
26254;DHT22;53339;51.378;0.094;2022-12-18T08:50:02;1.00;91.80
26254;DHT22;53339;51.378;0.094;2022-12-18T08:52:32;0.90;91.60
26254;DHT22;53339;51.378;0.094;2022-12-18T08:54:59;0.90;91.60
26254;DHT22;53339;51.378;0.094;2022-12-18T08:57:27;0.90;91.70
26254;DHT22;53339;51.378;0.094;2022-12-18T08:59:54;0.90;91.70
26254;DHT22;53339;51.378;0.094;2022-12-18T09:02:21;1.00;91.60
26254;DHT22;53339;51.378;0.094;2022-12-18T09:04:49;0.90;91.70
26254;DHT22;53339;51.378;0.094;2022-12-18T09:07:23;1.00;91.80
26254;DHT22;53339;51.378;0.094;2022-12-18T09:09:50;1.10;91.80
26254;DHT22;53339;51.378;0.094;2022-12-18T09:12:18;1.10;91.80
26254;DHT22;53339;51.378;0.094;2022-12-18T09:14:45;1.10;91.80
26254;DHT22;53339;51.378;0.094;2022-12-18T09:17:13;1.20;91.80
26254;DHT22;53339;51.378;0.094;2022-12-18T09:19:40;1.20;91.80
26254;DHT22;53339;51.378;0.094;2022-12-18T09:22:08;1.20;91.70
26254;DHT22;53339;51.378;0.094;2022-12-18T09:24:38;1.20;91.80
26254;DHT22;53339;51.378;0.094;2022-12-18T09:27:06;1.30;91.80
26254;DHT22;53339;51.378;0.094;2022-12-18T09:29:33;1.40;91.80
26254;DHT22;53339;51.378;0.094;2022-12-18T09:32:01;1.40;91.70
26254;DHT22;53339;51.378;0.094;2022-12-18T09:34:28;1.30;91.60
26254;DHT22;53339;51.378;0.094;2022-12-18T09:36:56;1.40;91.70
26254;DHT22;53339;51.378;0.094;2022-12-18T09:39:23;1.40;91.70
26254;DHT22;53339;51.378;0.094;2022-12-18T09:41:53;1.40;91.50
26254;DHT22;53339;51.378;0.094;2022-12-18T09:44:52;1.30;91.50
26254;DHT22;53339;51.378;0.094;2022-12-18T09:47:25;1.40;91.70
26254;DHT22;53339;51.378;0.094;2022-12-18T09:49:58;1.40;91.70
26254;DHT22;53339;51.378;0.094;2022-12-18T09:57:49;1.40;91.80
26254;DHT22;53339;51.378;0.094;2022-12-18T10:00:20;1.40;91.80
26254;DHT22;53339;51.378;0.094;2022-12-18T10:02:50;1.50;91.80
26254;DHT22;53339;51.378;0.094;2022-12-18T10:08:13;1.50;91.90
26254;DHT22;53339;51.378;0.094;2022-12-18T10:10:51;1.60;91.80
26254;DHT22;53339;51.378;0.094;2022-12-18T10:13:28;1.60;91.70
26254;DHT22;53339;51.378;0.094;2022-12-18T10:16:13;1.60;91.80
26254;DHT22;53339;51.378;0.094;2022-12-18T10:21:20;1.70;91.80
26254;DHT22;53339;51.378;0.094;2022-12-18T10:26:35;1.60;91.80
26254;DHT22;53339;51.378;0.094;2022-12-18T10:29:11;1.70;91.80
26254;DHT22;53339;51.378;0.094;2022-12-18T10:31:39;1.70;91.80
26254;DHT22;53339;51.378;0.094;2022-12-18T10:34:11;1.60;91.70
26254;DHT22;53339;51.378;0.094;2022-12-18T10:36:39;1.70;91.80
26254;DHT22;53339;51.378;0.094;2022-12-18T10:39:22;1.70;91.90
26254;DHT22;53339;51.378;0.094;2022-12-18T10:41:49;1.80;91.90
26254;DHT22;53339;51.378;0.094;2022-12-18T10:44:24;1.80;91.90
26254;DHT22;53339;51.378;0.094;2022-12-18T10:47:04;1.90;92.00
26254;DHT22;53339;51.378;0.094;2022-12-18T10:49:37;1.90;91.90
26254;DHT22;53339;51.378;0.094;2022-12-18T10:52:22;1.90;91.70
26254;DHT22;53339;51.378;0.094;2022-12-18T10:54:58;1.80;91.40
26254;DHT22;53339;51.378;0.094;2022-12-18T10:57:39;1.80;91.60
26254;DHT22;53339;51.378;0.094;2022-12-18T11:00:24;1.80;91.70
26254;DHT22;53339;51.378;0.094;2022-12-18T11:02:53;1.80;91.60
26254;DHT22;53339;51.378;0.094;2022-12-18T11:05:32;1.70;91.60
26254;DHT22;53339;51.378;0.094;2022-12-18T11:08:01;1.80;91.80
26254;DHT22;53339;51.378;0.094;2022-12-18T11:10:32;1.80;91.90
26254;DHT22;53339;51.378;0.094;2022-12-18T11:13:18;1.80;91.80
26254;DHT22;53339;51.378;0.094;2022-12-18T11:15:47;1.80;91.80
26254;DHT22;53339;51.378;0.094;2022-12-18T11:20:51;1.90;92.00
26254;DHT22;53339;51.378;0.094;2022-12-18T11:23:25;2.00;92.00
26254;DHT22;53339;51.378;0.094;2022-12-18T11:25:58;2.00;92.00
26254;DHT22;53339;51.378;0.094;2022-12-18T11:28:39;2.10;92.10
26254;DHT22;53339;51.378;0.094;2022-12-18T11:31:25;2.20;92.20
26254;DHT22;53339;51.378;0.094;2022-12-18T11:34:05;2.20;92.20
26254;DHT22;53339;51.378;0.094;2022-12-18T11:36:55;2.30;92.20
26254;DHT22;53339;51.378;0.094;2022-12-18T11:39:39;2.40;92.30
26254;DHT22;53339;51.378;0.094;2022-12-18T11:44:49;2.40;92.10
26254;DHT22;53339;51.378;0.094;2022-12-18T11:50:23;2.50;92.20
26254;DHT22;53339;51.378;0.094;2022-12-18T11:52:51;2.40;92.10
26254;DHT22;53339;51.378;0.094;2022-12-18T11:55:37;2.50;92.20
26254;DHT22;53339;51.378;0.094;2022-12-18T12:01:32;2.50;92.20
26254;DHT22;53339;51.378;0.094;2022-12-18T12:06:32;2.50;92.20
26254;DHT22;53339;51.378;0.094;2022-12-18T12:09:28;2.50;92.30
26254;DHT22;53339;51.378;0.094;2022-12-18T12:15:17;2.50;92.30
26254;DHT22;53339;51.378;0.094;2022-12-18T12:26:33;2.50;92.30
26254;DHT22;53339;51.378;0.094;2022-12-18T12:32:16;2.50;92.40
26254;DHT22;53339;51.378;0.094;2022-12-18T12:40:26;2.50;92.50
26254;DHT22;53339;51.378;0.094;2022-12-18T12:43:22;2.40;92.40
26254;DHT22;53339;51.378;0.094;2022-12-18T12:48:40;2.50;92.50
26254;DHT22;53339;51.378;0.094;2022-12-18T12:53:43;2.40;92.40
26254;DHT22;53339;51.378;0.094;2022-12-18T12:56:14;2.40;92.50
26254;DHT22;53339;51.378;0.094;2022-12-18T13:02:20;2.40;92.50
26254;DHT22;53339;51.378;0.094;2022-12-18T13:04:57;2.40;92.50
26254;DHT22;53339;51.378;0.094;2022-12-18T13:07:39;2.40;92.50
26254;DHT22;53339;51.378;0.094;2022-12-18T13:20:50;1.90;92.20
26254;DHT22;53339;51.378;0.094;2022-12-18T13:25:54;2.20;92.70
26254;DHT22;53339;51.378;0.094;2022-12-18T13:34:21;2.40;92.80
26254;DHT22;53339;51.378;0.094;2022-12-18T13:36:54;2.40;92.80
26254;DHT22;53339;51.378;0.094;2022-12-18T13:39:23;2.30;92.70
26254;DHT22;53339;51.378;0.094;2022-12-18T13:44:36;2.40;92.80
26254;DHT22;53339;51.378;0.094;2022-12-18T13:49:53;2.40;92.70
26254;DHT22;53339;51.378;0.094;2022-12-18T13:52:28;2.40;92.80
26254;DHT22;53339;51.378;0.094;2022-12-18T13:55:03;2.40;92.80
26254;DHT22;53339;51.378;0.094;2022-12-18T13:57:37;2.40;92.80
26254;DHT22;53339;51.378;0.094;2022-12-18T14:02:50;2.40;92.80
26254;DHT22;53339;51.378;0.094;2022-12-18T14:07:53;2.50;92.90
26254;DHT22;53339;51.378;0.094;2022-12-18T14:10:22;2.40;92.80
26254;DHT22;53339;51.378;0.094;2022-12-18T14:13:10;2.40;92.80
26254;DHT22;53339;51.378;0.094;2022-12-18T14:15:46;2.50;92.90
26254;DHT22;53339;51.378;0.094;2022-12-18T14:18:34;2.60;93.00
26254;DHT22;53339;51.378;0.094;2022-12-18T14:21:04;2.60;93.00
26254;DHT22;53339;51.378;0.094;2022-12-18T14:23:35;2.60;93.00
26254;DHT22;53339;51.378;0.094;2022-12-18T14:26:20;2.60;92.90
26254;DHT22;53339;51.378;0.094;2022-12-18T14:28:49;2.40;92.70
26254;DHT22;53339;51.378;0.094;2022-12-18T14:31:27;2.30;92.60
26254;DHT22;53339;51.378;0.094;2022-12-18T14:33:56;2.10;92.50
26254;DHT22;53339;51.378;0.094;2022-12-18T14:36:28;2.10;92.60
26254;DHT22;53339;51.378;0.094;2022-12-18T14:38:58;2.20;92.80
26254;DHT22;53339;51.378;0.094;2022-12-18T14:41:26;2.30;92.90
26254;DHT22;53339;51.378;0.094;2022-12-18T14:43:54;2.40;93.00
26254;DHT22;53339;51.378;0.094;2022-12-18T14:49:29;2.50;93.10
26254;DHT22;53339;51.378;0.094;2022-12-18T14:51:59;2.60;93.10
26254;DHT22;53339;51.378;0.094;2022-12-18T14:54:28;2.60;93.10
26254;DHT22;53339;51.378;0.094;2022-12-18T14:57:16;2.60;93.10
26254;DHT22;53339;51.378;0.094;2022-12-18T14:59:48;2.70;93.10
26254;DHT22;53339;51.378;0.094;2022-12-18T15:02:25;2.80;93.20
26254;DHT22;53339;51.378;0.094;2022-12-18T15:07:56;2.80;93.20
26254;DHT22;53339;51.378;0.094;2022-12-18T15:10:30;2.80;93.20
26254;DHT22;53339;51.378;0.094;2022-12-18T15:18:12;2.90;93.20
26254;DHT22;53339;51.378;0.094;2022-12-18T15:23:31;2.90;93.20
26254;DHT22;53339;51.378;0.094;2022-12-18T15:26:05;2.90;93.20
26254;DHT22;53339;51.378;0.094;2022-12-18T15:28:53;3.00;93.20
26254;DHT22;53339;51.378;0.094;2022-12-18T15:31:40;3.00;93.20
26254;DHT22;53339;51.378;0.094;2022-12-18T15:36:35;3.00;93.20
26254;DHT22;53339;51.378;0.094;2022-12-18T15:39:05;3.10;93.30
26254;DHT22;53339;51.378;0.094;2022-12-18T15:41:34;3.20;93.30
26254;DHT22;53339;51.378;0.094;2022-12-18T15:44:15;3.10;93.30
26254;DHT22;53339;51.378;0.094;2022-12-18T15:46:48;3.10;93.20
26254;DHT22;53339;51.378;0.094;2022-12-18T15:49:16;3.20;93.30
26254;DHT22;53339;51.378;0.094;2022-12-18T15:51:43;3.20;93.30
26254;DHT22;53339;51.378;0.094;2022-12-18T15:54:13;3.20;93.30
26254;DHT22;53339;51.378;0.094;2022-12-18T15:56:43;3.40;93.40
26254;DHT22;53339;51.378;0.094;2022-12-18T15:59:29;3.40;93.40
26254;DHT22;53339;51.378;0.094;2022-12-18T16:01:56;3.40;93.40
26254;DHT22;53339;51.378;0.094;2022-12-18T16:04:24;3.30;93.20
26254;DHT22;53339;51.378;0.094;2022-12-18T16:06:52;3.30;93.20
26254;DHT22;53339;51.378;0.094;2022-12-18T16:09:40;3.40;93.30
26254;DHT22;53339;51.378;0.094;2022-12-18T16:12:15;3.50;93.40
26254;DHT22;53339;51.378;0.094;2022-12-18T16:14:44;3.50;93.40
26254;DHT22;53339;51.378;0.094;2022-12-18T16:17:13;3.50;93.40
26254;DHT22;53339;51.378;0.094;2022-12-18T16:19:41;3.70;93.50
26254;DHT22;53339;51.378;0.094;2022-12-18T16:22:21;3.70;93.60
26254;DHT22;53339;51.378;0.094;2022-12-18T16:24:51;3.80;93.50
26254;DHT22;53339;51.378;0.094;2022-12-18T16:27:19;3.70;93.50
26254;DHT22;53339;51.378;0.094;2022-12-18T16:29:47;3.80;93.50
26254;DHT22;53339;51.378;0.094;2022-12-18T16:32:17;3.80;93.50
26254;DHT22;53339;51.378;0.094;2022-12-18T16:34:45;3.80;93.40
26254;DHT22;53339;51.378;0.094;2022-12-18T16:37:14;3.80;93.50
26254;DHT22;53339;51.378;0.094;2022-12-18T16:39:43;3.90;93.50
26254;DHT22;53339;51.378;0.094;2022-12-18T16:42:16;4.00;93.60
26254;DHT22;53339;51.378;0.094;2022-12-18T16:44:47;4.10;93.60
26254;DHT22;53339;51.378;0.094;2022-12-18T16:47:15;4.20;93.60
26254;DHT22;53339;51.378;0.094;2022-12-18T16:49:43;4.30;93.70
26254;DHT22;53339;51.378;0.094;2022-12-18T16:52:18;4.30;93.70
26254;DHT22;53339;51.378;0.094;2022-12-18T16:54:46;4.40;93.70
26254;DHT22;53339;51.378;0.094;2022-12-18T16:57:16;4.50;93.70
26254;DHT22;53339;51.378;0.094;2022-12-18T16:59:44;4.50;93.70
26254;DHT22;53339;51.378;0.094;2022-12-18T17:02:31;4.50;93.60
26254;DHT22;53339;51.378;0.094;2022-12-18T17:04:59;4.40;93.60
26254;DHT22;53339;51.378;0.094;2022-12-18T17:07:27;4.40;93.60
26254;DHT22;53339;51.378;0.094;2022-12-18T17:09:55;4.50;93.60
26254;DHT22;53339;51.378;0.094;2022-12-18T17:12:23;4.60;93.70
26254;DHT22;53339;51.378;0.094;2022-12-18T17:14:51;4.70;93.70
26254;DHT22;53339;51.378;0.094;2022-12-18T17:17:18;4.80;93.70
26254;DHT22;53339;51.378;0.094;2022-12-18T17:19:48;4.80;93.70
26254;DHT22;53339;51.378;0.094;2022-12-18T17:22:16;4.80;93.70
26254;DHT22;53339;51.378;0.094;2022-12-18T17:24:43;4.90;93.80
26254;DHT22;53339;51.378;0.094;2022-12-18T17:27:12;5.00;93.80
26254;DHT22;53339;51.378;0.094;2022-12-18T17:29:39;5.10;93.80
26254;DHT22;53339;51.378;0.094;2022-12-18T17:32:14;5.10;93.80
26254;DHT22;53339;51.378;0.094;2022-12-18T17:34:41;5.10;93.80
26254;DHT22;53339;51.378;0.094;2022-12-18T17:37:09;5.20;93.80
26254;DHT22;53339;51.378;0.094;2022-12-18T17:39:36;5.10;93.70
26254;DHT22;53339;51.378;0.094;2022-12-18T17:42:04;5.10;93.60
26254;DHT22;53339;51.378;0.094;2022-12-18T17:44:32;5.00;93.50
26254;DHT22;53339;51.378;0.094;2022-12-18T17:47:00;4.90;93.50
26254;DHT22;53339;51.378;0.094;2022-12-18T17:49:28;4.90;93.50
26254;DHT22;53339;51.378;0.094;2022-12-18T17:51:57;4.90;93.50
26254;DHT22;53339;51.378;0.094;2022-12-18T17:54:24;4.90;93.50
26254;DHT22;53339;51.378;0.094;2022-12-18T17:56:52;5.00;93.60
26254;DHT22;53339;51.378;0.094;2022-12-18T17:59:19;5.10;93.70
26254;DHT22;53339;51.378;0.094;2022-12-18T18:01:47;5.20;93.70
26254;DHT22;53339;51.378;0.094;2022-12-18T18:04:15;5.30;93.80
26254;DHT22;53339;51.378;0.094;2022-12-18T18:06:42;5.30;93.80
26254;DHT22;53339;51.378;0.094;2022-12-18T18:09:09;5.40;93.80
26254;DHT22;53339;51.378;0.094;2022-12-18T18:11:46;5.40;93.80
26254;DHT22;53339;51.378;0.094;2022-12-18T18:14:32;5.50;93.80
26254;DHT22;53339;51.378;0.094;2022-12-18T18:16:59;5.50;93.80
26254;DHT22;53339;51.378;0.094;2022-12-18T18:19:32;5.60;93.80
26254;DHT22;53339;51.378;0.094;2022-12-18T18:22:00;5.60;93.80